createdAt,value
2023-10-11T00:00:48.432Z,5.07
2023-10-11T00:03:21.897Z,5.00
2023-10-11T00:05:54.314Z,4.93
2023-10-11T00:08:27.448Z,5.15
2023-10-11T00:11:01.807Z,4.80
2023-10-11T00:13:37.225Z,4.65
2023-10-11T00:16:08.468Z,4.18
2023-10-11T00:18:39.878Z,4.40
2023-10-11T00:21:14.630Z,5.20
2023-10-11T00:23:43.374Z,5.15
2023-10-11T00:26:11.399Z,4.53
2023-10-11T00:28:49.177Z,4.30
2023-10-11T00:31:20.965Z,4.13
2023-10-11T00:33:49.795Z,5.47
2023-10-11T00:36:26.125Z,4.53
2023-10-11T00:38:57.657Z,4.57
2023-10-11T00:41:32.015Z,4.38
2023-10-11T00:44:03.613Z,4.13
2023-10-11T00:46:38.571Z,4.40
2023-10-11T00:49:10.736Z,4.88
2023-10-11T00:51:40.327Z,4.25
2023-10-11T00:54:08.569Z,3.85
2023-10-11T00:56:36.977Z,4.70
2023-10-11T00:59:09.585Z,5.82
2023-10-11T01:01:37.999Z,5.32
2023-10-11T01:04:07.944Z,5.45
2023-10-11T01:06:36.376Z,5.75
2023-10-11T01:09:10.190Z,4.78
2023-10-11T01:11:38.144Z,5.18
2023-10-11T01:14:07.560Z,4.55
2023-10-11T01:16:36.688Z,4.95
2023-10-11T01:19:09.106Z,3.80
2023-10-11T01:21:38.380Z,4.68
2023-10-11T01:24:09.697Z,4.70
2023-10-11T01:26:37.793Z,4.88
2023-10-11T01:29:07.192Z,5.28
2023-10-11T01:31:35.978Z,3.88
2023-10-11T01:34:04.382Z,4.57
2023-10-11T01:36:32.358Z,3.95
2023-10-11T01:39:09.643Z,3.92
2023-10-11T01:41:41.801Z,4.35
2023-10-11T01:44:09.942Z,4.15
2023-10-11T01:46:40.751Z,4.53
2023-10-11T01:49:08.788Z,4.05
2023-10-11T01:51:40.297Z,5.35
2023-10-11T01:54:10.532Z,4.32
2023-10-11T01:56:39.422Z,4.45
2023-10-11T01:59:08.226Z,3.72
2023-10-11T02:01:42.044Z,5.68
2023-10-11T02:04:17.694Z,4.07
2023-10-11T02:06:45.732Z,4.88
2023-10-11T02:09:15.087Z,4.28
2023-10-11T02:11:43.777Z,4.22
2023-10-11T02:14:14.476Z,4.32
2023-10-11T02:16:42.457Z,4.93
2023-10-11T02:19:10.709Z,4.07
2023-10-11T02:21:44.866Z,4.03
2023-10-11T02:24:16.082Z,5.07
2023-10-11T02:26:50.869Z,4.15
2023-10-11T02:29:21.885Z,4.20
2023-10-11T02:31:51.443Z,4.32
2023-10-11T02:34:20.233Z,4.07
2023-10-11T02:36:57.060Z,3.55
2023-10-11T02:39:32.842Z,3.97
2023-10-11T02:42:03.184Z,5.10
2023-10-11T02:44:31.227Z,3.70
2023-10-11T02:47:01.098Z,4.53
2023-10-11T02:49:33.649Z,5.43
2023-10-11T02:52:07.272Z,4.35
2023-10-11T02:54:39.798Z,4.20
2023-10-11T02:57:19.913Z,5.00
2023-10-11T02:59:51.774Z,4.88
2023-10-11T03:02:22.173Z,4.45
2023-10-11T03:04:51.284Z,4.22
2023-10-11T03:07:23.860Z,3.95
2023-10-11T03:09:55.156Z,4.82
2023-10-11T03:12:32.508Z,3.55
2023-10-11T03:15:07.948Z,4.88
2023-10-11T03:17:41.752Z,3.70
2023-10-11T03:20:10.505Z,4.82
2023-10-11T03:22:38.339Z,4.22
2023-10-11T03:25:13.849Z,3.92
2023-10-11T03:27:50.330Z,3.88
2023-10-11T03:30:23.187Z,4.50
2023-10-11T03:32:51.223Z,5.15
2023-10-11T03:35:22.418Z,5.05
2023-10-11T03:37:59.361Z,4.28
2023-10-11T03:40:35.669Z,5.40
2023-10-11T03:43:13.841Z,5.15
2023-10-11T03:45:50.656Z,5.90
2023-10-11T03:48:19.167Z,5.03
2023-10-11T03:50:53.930Z,3.92
2023-10-11T03:53:22.057Z,5.20
2023-10-11T03:55:51.056Z,5.10
2023-10-11T03:58:35.296Z,4.90
2023-10-11T04:01:09.326Z,5.82
2023-10-11T04:03:41.530Z,5.05
2023-10-11T04:06:16.127Z,4.45
2023-10-11T04:08:48.687Z,5.22
2023-10-11T04:11:19.498Z,4.97
2023-10-11T04:13:50.258Z,5.53
2023-10-11T04:16:19.114Z,4.63
2023-10-11T04:18:47.197Z,4.53
2023-10-11T04:21:18.185Z,3.75
2023-10-11T04:23:47.675Z,4.82
2023-10-11T04:26:37.100Z,4.75
2023-10-11T04:29:18.567Z,4.15
2023-10-11T04:31:56.609Z,4.45
2023-10-11T04:34:32.759Z,3.90
2023-10-11T04:37:01.428Z,3.80
2023-10-11T04:39:35.700Z,5.75
2023-10-11T04:42:07.791Z,3.72
2023-10-11T04:44:43.666Z,5.22
2023-10-11T04:47:12.355Z,4.68
2023-10-11T04:49:44.989Z,5.88
2023-10-11T04:52:15.520Z,4.47
2023-10-11T04:54:55.292Z,6.15
2023-10-11T04:57:37.399Z,5.47
2023-10-11T05:00:10.140Z,6.07
2023-10-11T05:02:39.854Z,4.85
2023-10-11T05:05:12.284Z,6.13
2023-10-11T05:07:43.686Z,5.38
2023-10-11T05:10:30.825Z,4.68
2023-10-11T05:13:06.768Z,5.43
2023-10-11T05:15:44.475Z,4.38
2023-10-11T05:18:19.834Z,5.60
2023-10-11T05:20:58.834Z,5.97
2023-10-11T05:23:42.992Z,5.50
2023-10-11T05:26:37.932Z,5.63
2023-10-11T05:29:13.972Z,4.63
2023-10-11T05:31:57.798Z,5.40
2023-10-11T05:34:47.217Z,6.47
2023-10-11T05:37:32.601Z,5.03
2023-10-11T05:40:17.837Z,4.63
2023-10-11T05:43:03.170Z,6.38
2023-10-11T05:45:48.466Z,5.55
2023-10-11T05:48:35.128Z,5.20
2023-10-11T05:51:04.700Z,4.93
2023-10-11T05:53:33.499Z,4.25
2023-10-11T05:56:01.519Z,4.72
2023-10-11T05:58:29.497Z,4.40
2023-10-11T06:00:57.820Z,6.03
2023-10-11T06:03:30.255Z,4.40
2023-10-11T06:06:04.921Z,4.82
2023-10-11T06:08:32.901Z,5.22
2023-10-11T06:11:00.865Z,5.18
2023-10-11T06:13:30.107Z,4.88
2023-10-11T06:16:01.482Z,7.28
2023-10-11T06:18:56.924Z,5.07
2023-10-11T06:21:34.155Z,5.72
2023-10-11T06:24:04.939Z,5.82
2023-10-11T06:26:50.355Z,5.38
2023-10-11T06:29:20.175Z,6.93
2023-10-11T06:31:47.174Z,5.80
2023-10-11T06:34:24.387Z,6.63
2023-10-11T06:36:52.461Z,6.38
2023-10-11T06:39:55.934Z,5.95
2023-10-11T06:42:23.640Z,6.60
2023-10-11T06:44:52.819Z,7.18
2023-10-11T06:47:21.736Z,7.65
2023-10-11T06:49:55.277Z,6.50
2023-10-11T06:52:26.383Z,6.55
2023-10-11T06:55:09.204Z,6.72
2023-10-11T06:57:41.051Z,6.20
2023-10-11T07:00:13.781Z,6.57
2023-10-11T07:02:48.951Z,5.75
2023-10-11T07:05:21.135Z,5.78
2023-10-11T07:07:49.812Z,6.72
2023-10-11T07:10:34.040Z,6.88
2023-10-11T07:13:08.789Z,6.75
2023-10-11T07:15:38.730Z,6.97
2023-10-11T07:18:09.543Z,7.45
2023-10-11T07:20:59.243Z,6.55
2023-10-11T07:23:36.278Z,6.85
2023-10-11T07:26:18.541Z,7.72
2023-10-11T07:28:51.336Z,7.93
2023-10-11T07:31:18.374Z,9.35
2023-10-11T07:33:51.200Z,8.70
2023-10-11T07:36:21.074Z,8.23
2023-10-11T07:38:55.755Z,9.38
2023-10-11T07:41:25.877Z,9.45
2023-10-11T07:43:56.776Z,8.95
2023-10-11T07:46:25.065Z,9.63
2023-10-11T07:48:58.208Z,9.18
2023-10-11T07:51:27.541Z,8.57
2023-10-11T07:53:55.626Z,7.80
2023-10-11T07:56:23.604Z,8.15
2023-10-11T07:58:53.056Z,8.75
2023-10-11T08:01:31.896Z,8.95
2023-10-11T08:04:02.907Z,8.75
2023-10-11T08:06:32.240Z,9.43
2023-10-11T08:09:01.290Z,6.93
2023-10-11T08:11:37.281Z,8.57
2023-10-11T08:14:15.532Z,9.18
2023-10-11T08:16:44.490Z,9.30
2023-10-11T08:19:12.722Z,9.13
2023-10-11T08:21:42.234Z,9.52
2023-10-11T08:24:16.667Z,10.13
2023-10-11T08:26:46.473Z,10.90
2023-10-11T08:29:28.922Z,8.90
2023-10-11T08:31:58.689Z,8.35
2023-10-11T08:34:28.034Z,8.70
2023-10-11T08:36:57.702Z,7.90
2023-10-11T08:39:36.403Z,10.43
2023-10-11T08:42:09.561Z,8.50
2023-10-11T08:44:37.670Z,10.00
2023-10-11T08:47:06.072Z,9.52
2023-10-11T08:49:35.495Z,8.98
2023-10-11T08:52:05.973Z,10.70
2023-10-11T08:54:33.955Z,8.73
2023-10-11T08:57:04.681Z,8.82
2023-10-11T08:59:32.896Z,8.15
2023-10-11T09:02:08.468Z,7.80
2023-10-11T09:04:37.100Z,9.13
2023-10-11T09:07:07.044Z,10.25
2023-10-11T09:09:40.704Z,11.93
2023-10-11T09:12:25.603Z,9.52
2023-10-11T09:14:59.420Z,10.73
2023-10-11T09:17:28.108Z,9.50
2023-10-11T09:19:59.167Z,9.73
2023-10-11T09:22:29.630Z,10.48
2023-10-11T09:25:04.970Z,10.20
2023-10-11T09:27:48.296Z,9.68
2023-10-11T09:30:23.823Z,12.23
2023-10-11T09:32:53.642Z,10.30
2023-10-11T09:35:25.025Z,9.25
2023-10-11T09:37:54.524Z,7.30
2023-10-11T09:40:27.448Z,10.18
2023-10-11T09:42:58.787Z,12.15
2023-10-11T09:45:27.032Z,9.80
2023-10-11T09:47:56.710Z,12.15
2023-10-11T09:50:25.885Z,12.68
2023-10-11T09:52:55.144Z,11.23
2023-10-11T09:55:25.642Z,12.88
2023-10-11T09:58:03.989Z,10.52
2023-10-11T10:00:35.569Z,13.25
2023-10-11T10:03:05.352Z,12.07
2023-10-11T10:05:54.400Z,11.48
2023-10-11T10:08:29.615Z,12.02
2023-10-11T10:10:59.970Z,13.40
2023-10-11T10:13:27.872Z,13.63
2023-10-11T10:15:58.437Z,9.77
2023-10-11T10:18:28.634Z,13.07
2023-10-11T10:21:03.802Z,14.00
2023-10-11T10:23:34.120Z,13.05
2023-10-11T10:26:22.649Z,10.23
2023-10-11T10:28:54.416Z,11.82
2023-10-11T10:31:23.043Z,10.23
2023-10-11T10:34:14.089Z,14.23
2023-10-11T10:36:44.192Z,11.25
2023-10-11T10:39:45.615Z,12.80
2023-10-11T10:42:14.293Z,13.13
2023-10-11T10:44:50.671Z,12.32
2023-10-11T10:47:39.467Z,9.68
2023-10-11T10:50:17.422Z,10.00
2023-10-11T10:52:45.386Z,13.05
2023-10-11T10:55:16.135Z,8.63
2023-10-11T10:57:44.006Z,12.73
2023-10-11T11:00:22.491Z,8.00
2023-10-11T11:02:51.259Z,12.52
2023-10-11T11:05:27.370Z,13.18
2023-10-11T11:08:16.835Z,10.95
2023-10-11T11:10:58.292Z,12.68
2023-10-11T11:13:27.158Z,13.77
2023-10-11T11:15:57.538Z,14.43
2023-10-11T11:18:32.466Z,14.65
2023-10-11T11:21:19.087Z,14.23
2023-10-11T11:23:46.686Z,14.27
2023-10-11T11:26:31.302Z,10.07
2023-10-11T11:29:12.492Z,11.07
2023-10-11T11:31:52.950Z,10.00
2023-10-11T11:34:28.413Z,10.43
2023-10-11T11:37:14.265Z,9.10
2023-10-11T11:39:51.650Z,12.68
2023-10-11T11:42:23.586Z,10.63
2023-10-11T11:44:50.966Z,10.27
2023-10-11T11:47:24.964Z,11.10
2023-10-11T11:49:54.672Z,10.00
2023-10-11T11:52:22.777Z,12.70
2023-10-11T11:54:49.820Z,10.70
2023-10-11T11:57:18.809Z,13.98
2023-10-11T11:59:47.098Z,12.43
2023-10-11T12:02:19.076Z,8.35
2023-10-11T12:04:49.473Z,11.25
2023-10-11T12:07:18.218Z,12.57
2023-10-11T12:10:02.111Z,10.45
2023-10-11T12:12:32.155Z,12.55
2023-10-11T12:15:02.298Z,8.40
2023-10-11T12:17:30.487Z,12.05
2023-10-11T12:19:58.421Z,10.70
2023-10-11T12:22:26.567Z,9.98
2023-10-11T12:24:59.394Z,10.18
2023-10-11T12:27:28.214Z,10.13
2023-10-11T12:30:08.607Z,10.13
2023-10-11T12:32:38.847Z,11.48
2023-10-11T12:35:09.458Z,8.57
2023-10-11T12:37:37.925Z,9.50
2023-10-11T12:40:13.016Z,8.00
2023-10-11T12:42:41.295Z,9.25
2023-10-11T12:45:09.574Z,8.35
2023-10-11T12:47:39.282Z,8.40
2023-10-11T12:50:07.517Z,10.15
2023-10-11T12:52:39.146Z,9.00
2023-10-11T12:55:08.094Z,8.85
2023-10-11T12:57:39.504Z,8.98
2023-10-11T13:00:21.775Z,7.60
2023-10-11T13:02:51.223Z,7.35
2023-10-11T13:05:19.182Z,8.57
2023-10-11T13:07:47.068Z,8.25
2023-10-11T13:10:16.190Z,8.05
2023-10-11T13:12:44.111Z,7.97
2023-10-11T13:15:19.740Z,9.13
2023-10-11T13:17:48.507Z,7.40
2023-10-11T13:20:20.398Z,7.18
2023-10-11T13:22:48.881Z,7.70
2023-10-11T13:25:33.268Z,7.22
2023-10-11T13:28:04.409Z,8.73
2023-10-11T13:30:37.953Z,6.70
2023-10-11T13:33:11.018Z,8.05
2023-10-11T13:35:40.570Z,7.25
2023-10-11T13:38:14.064Z,7.03
2023-10-11T13:40:42.213Z,6.60
2023-10-11T13:43:10.241Z,7.38
2023-10-11T13:45:41.864Z,8.20
2023-10-11T13:48:15.145Z,8.48
2023-10-11T13:50:51.694Z,8.52
2023-10-11T13:53:24.196Z,8.90
2023-10-11T13:55:53.069Z,7.57
2023-10-11T13:58:21.763Z,7.60
2023-10-11T14:01:02.978Z,9.77
2023-10-11T14:03:55.982Z,10.38
2023-10-11T14:06:43.171Z,9.27
2023-10-11T14:09:18.677Z,9.63
2023-10-11T14:11:48.112Z,8.45
2023-10-11T14:14:21.765Z,12.27
2023-10-11T14:16:50.268Z,14.07
2023-10-11T14:19:18.704Z,8.55
2023-10-11T14:21:49.068Z,12.90
2023-10-11T14:24:17.819Z,9.40
2023-10-11T14:26:46.285Z,10.07
2023-10-11T14:29:14.162Z,9.85
2023-10-11T14:31:43.670Z,9.50
2023-10-11T14:34:12.201Z,11.32
2023-10-11T14:36:42.250Z,10.90
2023-10-11T14:39:20.316Z,12.82
2023-10-11T14:41:49.681Z,10.70
2023-10-11T14:44:17.911Z,12.73
2023-10-11T14:46:48.491Z,13.13
2023-10-11T14:49:21.447Z,13.90
2023-10-11T14:51:49.576Z,14.00
2023-10-11T14:54:19.051Z,9.00
2023-10-11T14:56:47.578Z,9.05
2023-10-11T14:59:15.539Z,10.57
2023-10-11T15:01:43.571Z,10.70
2023-10-11T15:04:12.105Z,10.23
2023-10-11T15:06:40.692Z,9.98
2023-10-11T15:09:10.701Z,11.23
2023-10-11T15:11:40.000Z,9.98
2023-10-11T15:14:09.186Z,8.73
2023-10-11T15:16:37.661Z,12.85
2023-10-11T15:19:05.862Z,8.70
2023-10-11T15:21:33.880Z,11.05
2023-10-11T15:24:08.530Z,9.88
2023-10-11T15:26:36.561Z,15.07
2023-10-11T15:29:08.000Z,10.20
2023-10-11T15:31:36.268Z,9.73
2023-10-11T15:34:08.821Z,9.95
2023-10-11T15:36:37.193Z,10.75
2023-10-11T15:39:08.883Z,8.73
2023-10-11T15:41:37.028Z,8.82
2023-10-11T15:44:06.452Z,11.60
2023-10-11T15:46:35.061Z,13.00
2023-10-11T15:49:03.180Z,10.55
2023-10-11T15:51:31.183Z,10.40
2023-10-11T15:53:59.380Z,9.60
2023-10-11T15:56:27.684Z,10.75
2023-10-11T15:58:57.723Z,9.50
2023-10-11T16:01:28.826Z,8.75
2023-10-11T16:03:57.036Z,9.55
2023-10-11T16:06:26.909Z,10.07
2023-10-11T16:08:55.228Z,10.13
2023-10-11T16:11:23.129Z,9.20
2023-10-11T16:13:51.129Z,9.60
2023-10-11T16:16:19.119Z,9.50
2023-10-11T16:18:48.707Z,8.65
2023-10-11T16:21:17.237Z,9.07
2023-10-11T16:23:45.487Z,9.98
2023-10-11T16:26:15.649Z,9.38
2023-10-11T16:28:44.677Z,10.13
2023-10-11T16:31:14.340Z,11.00
2023-10-11T16:33:43.392Z,9.18
2023-10-11T16:36:12.932Z,9.10
2023-10-11T16:38:41.466Z,9.82
2023-10-11T16:41:09.931Z,9.20
2023-10-11T16:43:39.544Z,9.15
2023-10-11T16:46:20.122Z,8.73
2023-10-11T16:48:56.638Z,8.75
2023-10-11T16:51:25.932Z,8.93
2023-10-11T16:53:53.986Z,9.13
2023-10-11T16:56:24.768Z,8.40
2023-10-11T16:58:53.258Z,9.13
2023-10-11T17:01:21.483Z,9.35
2023-10-11T17:03:49.814Z,9.88
2023-10-11T17:06:17.967Z,8.07
2023-10-11T17:08:47.271Z,8.40
2023-10-11T17:11:15.387Z,9.45
2023-10-11T17:13:44.794Z,8.95
2023-10-11T17:16:14.465Z,8.60
2023-10-11T17:18:42.690Z,8.70
2023-10-11T17:21:12.593Z,8.20
2023-10-11T17:23:41.826Z,8.50
2023-10-11T17:26:15.887Z,8.65
2023-10-11T17:28:44.414Z,8.70
2023-10-11T17:31:13.584Z,8.18
2023-10-11T17:33:43.746Z,8.90
2023-10-11T17:36:12.645Z,8.10
2023-10-11T17:38:40.984Z,8.93
2023-10-11T17:41:10.537Z,8.73
2023-10-11T17:43:42.927Z,8.35
2023-10-11T17:46:11.106Z,8.48
2023-10-11T17:48:39.583Z,8.85
2023-10-11T17:51:08.376Z,8.95
2023-10-11T17:53:37.625Z,8.25
2023-10-11T17:56:05.852Z,8.43
2023-10-11T17:58:34.873Z,8.38
2023-10-11T18:01:06.178Z,8.30
2023-10-11T18:03:35.149Z,8.68
2023-10-11T18:06:03.250Z,8.90
2023-10-11T18:08:32.123Z,8.07
2023-10-11T18:11:01.154Z,8.27
2023-10-11T18:13:29.013Z,9.27
2023-10-11T18:15:56.879Z,8.63
2023-10-11T18:18:26.530Z,8.75
2023-10-11T18:20:54.661Z,9.02
2023-10-11T18:23:22.955Z,8.90
2023-10-11T18:25:51.001Z,10.68
2023-10-11T18:28:18.913Z,9.02
2023-10-11T18:30:48.081Z,9.75
2023-10-11T18:33:16.093Z,10.25
2023-10-11T18:35:45.363Z,9.13
2023-10-11T18:38:14.349Z,8.93
2023-10-11T18:40:44.548Z,9.85
2023-10-11T18:43:12.539Z,10.30
2023-10-11T18:45:40.666Z,9.20
2023-10-11T18:48:08.735Z,7.80
2023-10-11T18:50:36.862Z,9.93
2023-10-11T18:53:06.232Z,11.45
2023-10-11T18:55:34.643Z,11.02
2023-10-11T18:58:02.568Z,13.00
2023-10-11T19:00:34.236Z,11.48
2023-10-11T19:03:03.033Z,10.90
2023-10-11T19:05:30.940Z,10.40
2023-10-11T19:07:59.794Z,9.45
2023-10-11T19:10:29.795Z,8.88
2023-10-11T19:12:58.962Z,11.32
2023-10-11T19:15:29.129Z,11.10
2023-10-11T19:17:57.335Z,10.38
2023-10-11T19:20:28.153Z,8.85
2023-10-11T19:22:57.296Z,11.77
2023-10-11T19:25:25.313Z,11.68
2023-10-11T19:27:56.327Z,10.43
2023-10-11T19:30:24.372Z,8.63
2023-10-11T19:32:52.651Z,9.18
2023-10-11T19:35:21.533Z,10.68
2023-10-11T19:37:49.511Z,9.23
2023-10-11T19:40:19.700Z,9.90
2023-10-11T19:42:47.650Z,9.43
2023-10-11T19:45:19.064Z,9.15
2023-10-11T19:47:48.257Z,8.38
2023-10-11T19:50:16.768Z,9.30
2023-10-11T19:52:44.884Z,9.60
2023-10-11T19:55:14.497Z,9.45
2023-10-11T19:57:42.593Z,8.82
2023-10-11T20:00:11.640Z,9.50
2023-10-11T20:02:41.281Z,8.30
2023-10-11T20:07:43.739Z,8.60
2023-10-11T20:10:14.593Z,8.38
2023-10-11T20:12:42.959Z,7.93
2023-10-11T20:15:12.001Z,7.95
2023-10-11T20:17:43.915Z,8.02
2023-10-11T20:20:13.566Z,6.72
2023-10-11T20:22:41.770Z,8.73
2023-10-11T20:25:12.033Z,6.78
2023-10-11T20:27:41.197Z,7.38
2023-10-11T20:30:09.992Z,6.93
2023-10-11T20:32:37.933Z,8.68
2023-10-11T20:35:08.993Z,6.88
2023-10-11T20:37:37.288Z,7.57
2023-10-11T20:40:14.277Z,7.28
2023-10-11T20:42:46.161Z,7.82
2023-10-11T20:45:15.617Z,7.15
2023-10-11T20:47:44.405Z,8.60
2023-10-11T20:50:18.867Z,7.88
2023-10-11T20:52:47.016Z,7.88
2023-10-11T20:55:16.878Z,6.53
2023-10-11T20:57:47.090Z,7.07
2023-10-11T21:00:16.490Z,7.10
2023-10-11T21:02:50.714Z,7.15
2023-10-11T21:05:24.826Z,7.65
2023-10-11T21:07:52.786Z,6.82
2023-10-11T21:10:20.921Z,7.18
2023-10-11T21:12:48.842Z,8.00
2023-10-11T21:15:16.855Z,7.57
2023-10-11T21:17:45.270Z,5.90
2023-10-11T21:20:13.840Z,8.00
2023-10-11T21:22:43.156Z,7.60
2023-10-11T21:25:13.998Z,8.52
2023-10-11T21:27:44.509Z,8.10
2023-10-11T21:30:13.486Z,9.80
2023-10-11T21:32:42.759Z,7.07
2023-10-11T21:35:18.068Z,8.20
2023-10-11T21:37:49.247Z,8.43
2023-10-11T21:40:17.303Z,6.40
2023-10-11T21:42:45.482Z,7.35
2023-10-11T21:45:14.112Z,8.00
2023-10-11T21:47:42.722Z,7.85
2023-10-11T21:50:12.404Z,6.55
2023-10-11T21:52:42.126Z,7.30
2023-10-11T21:55:14.452Z,8.60
2023-10-11T21:57:44.307Z,8.68
2023-10-11T22:00:13.916Z,7.82
2023-10-11T22:02:44.391Z,7.53
2023-10-11T22:05:13.381Z,7.30
2023-10-11T22:07:45.413Z,7.90
2023-10-11T22:10:14.810Z,7.15
2023-10-11T22:12:42.977Z,7.38
2023-10-11T22:15:12.967Z,7.53
2023-10-11T22:17:44.827Z,6.75
2023-10-11T22:20:17.151Z,7.90
2023-10-11T22:22:45.260Z,7.53
2023-10-11T22:25:15.349Z,7.00
2023-10-11T22:27:43.981Z,8.63
2023-10-11T22:30:13.956Z,7.07
2023-10-11T22:32:42.027Z,6.53
2023-10-11T22:35:10.657Z,8.50
2023-10-11T22:37:38.758Z,8.18
2023-10-11T22:40:14.486Z,7.18
2023-10-11T22:42:43.931Z,8.00
2023-10-11T22:45:12.140Z,5.93
2023-10-11T22:47:41.117Z,8.18
2023-10-11T22:50:09.154Z,7.30
2023-10-11T22:52:37.130Z,7.53
2023-10-11T22:55:08.065Z,8.13
2023-10-11T22:57:37.170Z,7.88
2023-10-11T23:00:17.106Z,8.05
2023-10-11T23:02:45.347Z,7.15
2023-10-11T23:05:13.230Z,7.68
2023-10-11T23:07:41.148Z,7.38
2023-10-11T23:10:17.439Z,7.80
2023-10-11T23:12:47.595Z,7.20
2023-10-11T23:15:21.050Z,8.07
2023-10-11T23:17:50.767Z,7.25
2023-10-11T23:20:19.634Z,6.75
2023-10-11T23:22:50.804Z,7.60
2023-10-11T23:25:27.044Z,7.13
2023-10-11T23:27:56.381Z,8.23
2023-10-11T23:30:28.969Z,8.73
2023-10-11T23:33:09.136Z,8.70
2023-10-11T23:35:38.285Z,7.32
2023-10-11T23:38:28.206Z,8.02
2023-10-11T23:41:15.830Z,5.97
2023-10-11T23:43:47.439Z,8.10
2023-10-11T23:46:27.314Z,8.13
2023-10-11T23:49:07.654Z,8.57
2023-10-11T23:51:39.128Z,8.52
2023-10-11T23:54:09.099Z,8.77
2023-10-11T23:56:37.033Z,7.82
2023-10-11T23:59:14.519Z,7.88
